sensor_id;sensor_type;location;lat;lon;timestamp;P1;durP1;ratioP1;P2;durP2;ratioP2
30096;SDS011;16915;51.466;3.610;2023-01-13T00:00:20;39.05;;;3.95;;
30096;SDS011;16915;51.466;3.610;2023-01-13T00:02:45;33.22;;;4.13;;
30096;SDS011;16915;51.466;3.610;2023-01-13T00:05:11;35.38;;;4.05;;
30096;SDS011;16915;51.466;3.610;2023-01-13T00:07:37;31.63;;;4.05;;
30096;SDS011;16915;51.466;3.610;2023-01-13T00:10:05;37.17;;;5.00;;
30096;SDS011;16915;51.466;3.610;2023-01-13T00:12:32;34.13;;;3.85;;
30096;SDS011;16915;51.466;3.610;2023-01-13T00:14:58;38.17;;;4.35;;
30096;SDS011;16915;51.466;3.610;2023-01-13T00:17:23;27.88;;;4.03;;
30096;SDS011;16915;51.466;3.610;2023-01-13T00:19:49;29.02;;;3.95;;
30096;SDS011;16915;51.466;3.610;2023-01-13T00:22:15;31.60;;;4.10;;
30096;SDS011;16915;51.466;3.610;2023-01-13T00:24:41;27.85;;;4.72;;
30096;SDS011;16915;51.466;3.610;2023-01-13T00:27:06;31.83;;;4.32;;
30096;SDS011;16915;51.466;3.610;2023-01-13T00:29:32;33.38;;;3.60;;
30096;SDS011;16915;51.466;3.610;2023-01-13T00:31:57;32.08;;;4.07;;
30096;SDS011;16915;51.466;3.610;2023-01-13T00:34:23;38.95;;;4.57;;
30096;SDS011;16915;51.466;3.610;2023-01-13T00:36:49;29.75;;;3.85;;
30096;SDS011;16915;51.466;3.610;2023-01-13T00:39:14;30.65;;;4.20;;
30096;SDS011;16915;51.466;3.610;2023-01-13T00:41:40;47.97;;;5.32;;
30096;SDS011;16915;51.466;3.610;2023-01-13T00:44:24;35.20;;;4.45;;
30096;SDS011;16915;51.466;3.610;2023-01-13T00:46:50;36.97;;;4.75;;
30096;SDS011;16915;51.466;3.610;2023-01-13T00:49:15;37.72;;;4.43;;
30096;SDS011;16915;51.466;3.610;2023-01-13T00:51:42;44.03;;;4.82;;
30096;SDS011;16915;51.466;3.610;2023-01-13T00:54:08;37.15;;;5.72;;
30096;SDS011;16915;51.466;3.610;2023-01-13T00:56:33;35.50;;;4.18;;
30096;SDS011;16915;51.466;3.610;2023-01-13T00:58:59;32.85;;;5.20;;
30096;SDS011;16915;51.466;3.610;2023-01-13T01:01:26;35.53;;;4.50;;
30096;SDS011;16915;51.466;3.610;2023-01-13T01:03:52;33.90;;;4.38;;
30096;SDS011;16915;51.466;3.610;2023-01-13T01:06:19;30.05;;;4.32;;
30096;SDS011;16915;51.466;3.610;2023-01-13T01:08:47;28.83;;;4.47;;
30096;SDS011;16915;51.466;3.610;2023-01-13T01:11:18;29.98;;;4.90;;
30096;SDS011;16915;51.466;3.610;2023-01-13T01:13:45;25.80;;;3.53;;
30096;SDS011;16915;51.466;3.610;2023-01-13T01:16:12;20.02;;;3.70;;
30096;SDS011;16915;51.466;3.610;2023-01-13T01:18:40;35.90;;;4.07;;
30096;SDS011;16915;51.466;3.610;2023-01-13T01:21:08;32.17;;;3.80;;
30096;SDS011;16915;51.466;3.610;2023-01-13T01:23:34;23.15;;;4.63;;
30096;SDS011;16915;51.466;3.610;2023-01-13T01:26:09;21.98;;;3.85;;
30096;SDS011;16915;51.466;3.610;2023-01-13T01:28:42;32.63;;;3.83;;
30096;SDS011;16915;51.466;3.610;2023-01-13T01:31:12;25.65;;;3.47;;
30096;SDS011;16915;51.466;3.610;2023-01-13T01:33:38;21.75;;;3.58;;
30096;SDS011;16915;51.466;3.610;2023-01-13T01:36:07;25.00;;;3.50;;
30096;SDS011;16915;51.466;3.610;2023-01-13T01:38:35;36.08;;;4.05;;
30096;SDS011;16915;51.466;3.610;2023-01-13T01:41:01;34.67;;;4.70;;
30096;SDS011;16915;51.466;3.610;2023-01-13T01:43:44;22.42;;;4.47;;
30096;SDS011;16915;51.466;3.610;2023-01-13T01:49:07;28.20;;;3.45;;
30096;SDS011;16915;51.466;3.610;2023-01-13T01:51:54;30.25;;;4.15;;
30096;SDS011;16915;51.466;3.610;2023-01-13T01:54:22;29.00;;;4.50;;
30096;SDS011;16915;51.466;3.610;2023-01-13T01:56:51;34.55;;;5.80;;
30096;SDS011;16915;51.466;3.610;2023-01-13T01:59:17;22.60;;;3.38;;
30096;SDS011;16915;51.466;3.610;2023-01-13T02:01:43;31.17;;;3.90;;
30096;SDS011;16915;51.466;3.610;2023-01-13T02:04:27;30.35;;;3.40;;
30096;SDS011;16915;51.466;3.610;2023-01-13T02:06:56;24.60;;;3.88;;
30096;SDS011;16915;51.466;3.610;2023-01-13T02:09:23;25.00;;;3.40;;
30096;SDS011;16915;51.466;3.610;2023-01-13T02:11:50;30.20;;;2.97;;
30096;SDS011;16915;51.466;3.610;2023-01-13T02:14:34;25.35;;;4.00;;
30096;SDS011;16915;51.466;3.610;2023-01-13T02:17:08;22.40;;;3.20;;
30096;SDS011;16915;51.466;3.610;2023-01-13T02:37:27;14.82;;;1.85;;
30096;SDS011;16915;51.466;3.610;2023-01-13T02:40:02;7.28;;;1.63;;
30096;SDS011;16915;51.466;3.610;2023-01-13T02:42:33;8.40;;;1.42;;
30096;SDS011;16915;51.466;3.610;2023-01-13T02:45:28;9.82;;;1.30;;
30096;SDS011;16915;51.466;3.610;2023-01-13T02:47:57;6.88;;;1.63;;
30096;SDS011;16915;51.466;3.610;2023-01-13T02:50:31;9.25;;;1.15;;
30096;SDS011;16915;51.466;3.610;2023-01-13T02:53:04;8.48;;;1.25;;
30096;SDS011;16915;51.466;3.610;2023-01-13T02:55:38;5.10;;;0.93;;
30096;SDS011;16915;51.466;3.610;2023-01-13T02:58:08;5.75;;;0.90;;
30096;SDS011;16915;51.466;3.610;2023-01-13T03:00:38;4.57;;;0.88;;
30096;SDS011;16915;51.466;3.610;2023-01-13T03:03:05;8.60;;;0.82;;
30096;SDS011;16915;51.466;3.610;2023-01-13T03:05:31;7.65;;;1.23;;
30096;SDS011;16915;51.466;3.610;2023-01-13T03:10:51;8.65;;;1.23;;
30096;SDS011;16915;51.466;3.610;2023-01-13T03:15:56;9.57;;;1.50;;
30096;SDS011;16915;51.466;3.610;2023-01-13T03:24:15;15.00;;;1.67;;
30096;SDS011;16915;51.466;3.610;2023-01-13T03:26:49;4.72;;;0.77;;
30096;SDS011;16915;51.466;3.610;2023-01-13T03:29:33;11.55;;;1.48;;
30096;SDS011;16915;51.466;3.610;2023-01-13T03:32:22;7.88;;;1.20;;
30096;SDS011;16915;51.466;3.610;2023-01-13T03:37:36;10.90;;;1.33;;
30096;SDS011;16915;51.466;3.610;2023-01-13T03:40:09;13.15;;;2.13;;
30096;SDS011;16915;51.466;3.610;2023-01-13T03:42:43;15.35;;;2.10;;
30096;SDS011;16915;51.466;3.610;2023-01-13T03:45:32;10.48;;;1.75;;
30096;SDS011;16915;51.466;3.610;2023-01-13T03:48:01;13.05;;;1.63;;
30096;SDS011;16915;51.466;3.610;2023-01-13T03:50:35;15.13;;;2.13;;
30096;SDS011;16915;51.466;3.610;2023-01-13T03:53:14;17.55;;;2.10;;
30096;SDS011;16915;51.466;3.610;2023-01-13T03:55:46;12.15;;;1.88;;
30096;SDS011;16915;51.466;3.610;2023-01-13T03:58:17;18.73;;;2.13;;
30096;SDS011;16915;51.466;3.610;2023-01-13T04:00:52;23.63;;;2.40;;
30096;SDS011;16915;51.466;3.610;2023-01-13T04:03:30;23.45;;;2.15;;
30096;SDS011;16915;51.466;3.610;2023-01-13T04:06:04;9.85;;;2.28;;
30096;SDS011;16915;51.466;3.610;2023-01-13T04:08:42;18.52;;;1.92;;
30096;SDS011;16915;51.466;3.610;2023-01-13T04:11:16;18.85;;;2.53;;
30096;SDS011;16915;51.466;3.610;2023-01-13T04:13:47;19.88;;;2.17;;
30096;SDS011;16915;51.466;3.610;2023-01-13T04:16:14;16.83;;;2.95;;
30096;SDS011;16915;51.466;3.610;2023-01-13T04:18:40;22.85;;;2.55;;
30096;SDS011;16915;51.466;3.610;2023-01-13T04:21:06;25.67;;;3.92;;
30096;SDS011;16915;51.466;3.610;2023-01-13T04:23:33;18.13;;;2.45;;
30096;SDS011;16915;51.466;3.610;2023-01-13T04:25:59;17.25;;;2.13;;
30096;SDS011;16915;51.466;3.610;2023-01-13T04:28:25;21.27;;;2.70;;
30096;SDS011;16915;51.466;3.610;2023-01-13T04:30:50;20.85;;;3.47;;
30096;SDS011;16915;51.466;3.610;2023-01-13T04:33:17;19.45;;;2.33;;
30096;SDS011;16915;51.466;3.610;2023-01-13T04:35:43;22.08;;;3.20;;
30096;SDS011;16915;51.466;3.610;2023-01-13T04:38:14;21.33;;;2.67;;
30096;SDS011;16915;51.466;3.610;2023-01-13T04:40:41;16.52;;;2.47;;
30096;SDS011;16915;51.466;3.610;2023-01-13T04:43:07;23.95;;;3.33;;
30096;SDS011;16915;51.466;3.610;2023-01-13T04:45:33;16.55;;;2.13;;
30096;SDS011;16915;51.466;3.610;2023-01-13T04:47:58;15.32;;;2.35;;
30096;SDS011;16915;51.466;3.610;2023-01-13T04:50:25;19.73;;;2.50;;
30096;SDS011;16915;51.466;3.610;2023-01-13T04:52:51;15.63;;;2.55;;
30096;SDS011;16915;51.466;3.610;2023-01-13T04:55:17;22.77;;;2.55;;
30096;SDS011;16915;51.466;3.610;2023-01-13T04:57:44;24.10;;;3.42;;
30096;SDS011;16915;51.466;3.610;2023-01-13T05:00:11;22.05;;;3.38;;
30096;SDS011;16915;51.466;3.610;2023-01-13T05:02:38;23.73;;;3.33;;
30096;SDS011;16915;51.466;3.610;2023-01-13T05:05:05;28.05;;;3.03;;
30096;SDS011;16915;51.466;3.610;2023-01-13T05:07:31;13.68;;;2.60;;
30096;SDS011;16915;51.466;3.610;2023-01-13T05:09:57;26.35;;;2.97;;
30096;SDS011;16915;51.466;3.610;2023-01-13T05:12:23;28.13;;;3.03;;
30096;SDS011;16915;51.466;3.610;2023-01-13T05:15:10;21.73;;;2.50;;
30096;SDS011;16915;51.466;3.610;2023-01-13T05:17:55;29.50;;;3.63;;
30096;SDS011;16915;51.466;3.610;2023-01-13T05:20:22;20.77;;;3.20;;
30096;SDS011;16915;51.466;3.610;2023-01-13T05:22:47;18.45;;;3.15;;
30096;SDS011;16915;51.466;3.610;2023-01-13T05:25:33;10.30;;;2.40;;
30096;SDS011;16915;51.466;3.610;2023-01-13T05:28:02;19.38;;;2.67;;
30096;SDS011;16915;51.466;3.610;2023-01-13T05:30:30;19.33;;;3.25;;
30096;SDS011;16915;51.466;3.610;2023-01-13T05:32:57;15.90;;;3.10;;
30096;SDS011;16915;51.466;3.610;2023-01-13T05:35:23;24.27;;;2.83;;
30096;SDS011;16915;51.466;3.610;2023-01-13T05:37:49;19.98;;;3.25;;
30096;SDS011;16915;51.466;3.610;2023-01-13T05:40:16;17.85;;;2.80;;
30096;SDS011;16915;51.466;3.610;2023-01-13T05:43:05;15.90;;;3.33;;
30096;SDS011;16915;51.466;3.610;2023-01-13T05:46:18;20.25;;;2.85;;
30096;SDS011;16915;51.466;3.610;2023-01-13T05:48:39;32.00;;;3.60;;
30096;SDS011;16915;51.466;3.610;2023-01-13T05:51:07;18.30;;;2.97;;
30096;SDS011;16915;51.466;3.610;2023-01-13T05:53:35;17.63;;;2.75;;
30096;SDS011;16915;51.466;3.610;2023-01-13T05:56:06;29.80;;;3.03;;
30096;SDS011;16915;51.466;3.610;2023-01-13T05:58:32;28.45;;;3.50;;
30096;SDS011;16915;51.466;3.610;2023-01-13T06:01:02;29.63;;;4.45;;
30096;SDS011;16915;51.466;3.610;2023-01-13T06:03:30;22.10;;;2.70;;
30096;SDS011;16915;51.466;3.610;2023-01-13T06:05:56;28.23;;;3.20;;
30096;SDS011;16915;51.466;3.610;2023-01-13T06:08:26;25.35;;;3.03;;
30096;SDS011;16915;51.466;3.610;2023-01-13T06:10:52;25.13;;;2.90;;
30096;SDS011;16915;51.466;3.610;2023-01-13T06:13:17;17.30;;;2.85;;
30096;SDS011;16915;51.466;3.610;2023-01-13T06:15:43;12.85;;;3.05;;
30096;SDS011;16915;51.466;3.610;2023-01-13T06:18:09;26.17;;;4.53;;
30096;SDS011;16915;51.466;3.610;2023-01-13T06:20:34;29.85;;;3.50;;
30096;SDS011;16915;51.466;3.610;2023-01-13T06:23:00;19.60;;;3.17;;
30096;SDS011;16915;51.466;3.610;2023-01-13T06:25:32;25.65;;;3.58;;
30096;SDS011;16915;51.466;3.610;2023-01-13T06:28:00;15.55;;;2.40;;
30096;SDS011;16915;51.466;3.610;2023-01-13T06:30:27;28.08;;;2.78;;
30096;SDS011;16915;51.466;3.610;2023-01-13T06:32:59;23.70;;;3.67;;
30096;SDS011;16915;51.466;3.610;2023-01-13T06:35:28;26.40;;;3.47;;
30096;SDS011;16915;51.466;3.610;2023-01-13T06:37:57;20.42;;;3.08;;
30096;SDS011;16915;51.466;3.610;2023-01-13T06:40:24;22.58;;;3.22;;
30096;SDS011;16915;51.466;3.610;2023-01-13T06:42:51;22.65;;;2.90;;
30096;SDS011;16915;51.466;3.610;2023-01-13T06:45:38;19.98;;;3.05;;
30096;SDS011;16915;51.466;3.610;2023-01-13T06:48:04;18.38;;;2.53;;
30096;SDS011;16915;51.466;3.610;2023-01-13T06:50:30;20.33;;;3.03;;
30096;SDS011;16915;51.466;3.610;2023-01-13T06:52:56;28.67;;;3.58;;
30096;SDS011;16915;51.466;3.610;2023-01-13T06:55:22;24.90;;;3.92;;
30096;SDS011;16915;51.466;3.610;2023-01-13T06:57:48;26.90;;;4.05;;
30096;SDS011;16915;51.466;3.610;2023-01-13T07:00:18;25.75;;;4.07;;
30096;SDS011;16915;51.466;3.610;2023-01-13T07:02:45;17.05;;;2.90;;
30096;SDS011;16915;51.466;3.610;2023-01-13T07:05:11;23.13;;;3.00;;
30096;SDS011;16915;51.466;3.610;2023-01-13T07:07:36;19.80;;;3.17;;
30096;SDS011;16915;51.466;3.610;2023-01-13T07:10:02;20.52;;;3.13;;
30096;SDS011;16915;51.466;3.610;2023-01-13T07:12:28;18.20;;;3.80;;
30096;SDS011;16915;51.466;3.610;2023-01-13T07:14:54;22.88;;;3.65;;
30096;SDS011;16915;51.466;3.610;2023-01-13T07:17:38;24.95;;;3.00;;
30096;SDS011;16915;51.466;3.610;2023-01-13T07:20:04;19.77;;;2.92;;
30096;SDS011;16915;51.466;3.610;2023-01-13T07:22:30;22.95;;;3.28;;
30096;SDS011;16915;51.466;3.610;2023-01-13T07:24:57;28.25;;;3.83;;
30096;SDS011;16915;51.466;3.610;2023-01-13T07:27:22;26.17;;;3.50;;
30096;SDS011;16915;51.466;3.610;2023-01-13T07:29:48;30.50;;;3.03;;
30096;SDS011;16915;51.466;3.610;2023-01-13T07:32:13;25.58;;;2.72;;
30096;SDS011;16915;51.466;3.610;2023-01-13T07:34:39;28.63;;;3.97;;
30096;SDS011;16915;51.466;3.610;2023-01-13T07:37:05;32.83;;;4.00;;
30096;SDS011;16915;51.466;3.610;2023-01-13T07:39:30;28.73;;;3.58;;
30096;SDS011;16915;51.466;3.610;2023-01-13T07:41:56;20.50;;;3.83;;
30096;SDS011;16915;51.466;3.610;2023-01-13T07:44:41;22.23;;;3.20;;
30096;SDS011;16915;51.466;3.610;2023-01-13T07:47:07;25.65;;;3.30;;
30096;SDS011;16915;51.466;3.610;2023-01-13T07:49:34;20.13;;;3.08;;
30096;SDS011;16915;51.466;3.610;2023-01-13T07:52:00;21.90;;;3.42;;
30096;SDS011;16915;51.466;3.610;2023-01-13T07:54:25;31.05;;;2.90;;
30096;SDS011;16915;51.466;3.610;2023-01-13T07:56:51;22.45;;;3.20;;
30096;SDS011;16915;51.466;3.610;2023-01-13T07:59:17;27.90;;;3.05;;
30096;SDS011;16915;51.466;3.610;2023-01-13T08:01:42;18.73;;;3.10;;
30096;SDS011;16915;51.466;3.610;2023-01-13T08:04:08;30.17;;;3.05;;
30096;SDS011;16915;51.466;3.610;2023-01-13T08:06:33;15.05;;;2.55;;
30096;SDS011;16915;51.466;3.610;2023-01-13T08:09:00;27.98;;;3.28;;
30096;SDS011;16915;51.466;3.610;2023-01-13T08:11:26;15.73;;;2.40;;
30096;SDS011;16915;51.466;3.610;2023-01-13T08:13:55;15.50;;;2.67;;
30096;SDS011;16915;51.466;3.610;2023-01-13T08:16:21;16.20;;;2.72;;
30096;SDS011;16915;51.466;3.610;2023-01-13T08:18:47;14.88;;;2.55;;
30096;SDS011;16915;51.466;3.610;2023-01-13T08:21:13;17.45;;;2.25;;
30096;SDS011;16915;51.466;3.610;2023-01-13T08:23:42;16.40;;;2.67;;
30096;SDS011;16915;51.466;3.610;2023-01-13T08:26:10;23.08;;;3.15;;
30096;SDS011;16915;51.466;3.610;2023-01-13T08:28:37;20.40;;;3.53;;
30096;SDS011;16915;51.466;3.610;2023-01-13T08:31:07;22.95;;;2.38;;
30096;SDS011;16915;51.466;3.610;2023-01-13T08:33:35;27.73;;;3.58;;
30096;SDS011;16915;51.466;3.610;2023-01-13T08:36:02;12.02;;;2.17;;
30096;SDS011;16915;51.466;3.610;2023-01-13T08:38:33;25.65;;;2.92;;
30096;SDS011;16915;51.466;3.610;2023-01-13T08:41:00;17.42;;;2.33;;
30096;SDS011;16915;51.466;3.610;2023-01-13T08:43:26;29.60;;;6.10;;
30096;SDS011;16915;51.466;3.610;2023-01-13T08:45:55;21.33;;;3.13;;
30096;SDS011;16915;51.466;3.610;2023-01-13T08:48:23;26.95;;;3.63;;
30096;SDS011;16915;51.466;3.610;2023-01-13T08:50:49;18.13;;;2.45;;
30096;SDS011;16915;51.466;3.610;2023-01-13T08:53:14;17.65;;;2.83;;
30096;SDS011;16915;51.466;3.610;2023-01-13T08:55:40;19.40;;;3.20;;
30096;SDS011;16915;51.466;3.610;2023-01-13T08:58:06;24.42;;;2.40;;
30096;SDS011;16915;51.466;3.610;2023-01-13T09:00:31;31.08;;;3.25;;
30096;SDS011;16915;51.466;3.610;2023-01-13T09:02:57;20.08;;;2.25;;
30096;SDS011;16915;51.466;3.610;2023-01-13T09:05:23;27.83;;;3.13;;
30096;SDS011;16915;51.466;3.610;2023-01-13T09:07:50;24.50;;;2.75;;
30096;SDS011;16915;51.466;3.610;2023-01-13T09:10:15;18.88;;;2.92;;
30096;SDS011;16915;51.466;3.610;2023-01-13T09:12:41;21.92;;;2.45;;
30096;SDS011;16915;51.466;3.610;2023-01-13T09:15:25;16.75;;;2.65;;
30096;SDS011;16915;51.466;3.610;2023-01-13T09:17:51;17.02;;;1.83;;
30096;SDS011;16915;51.466;3.610;2023-01-13T09:20:16;20.63;;;2.97;;
30096;SDS011;16915;51.466;3.610;2023-01-13T09:22:43;18.85;;;1.95;;
30096;SDS011;16915;51.466;3.610;2023-01-13T09:25:10;17.90;;;2.38;;
30096;SDS011;16915;51.466;3.610;2023-01-13T09:27:36;12.73;;;2.75;;
30096;SDS011;16915;51.466;3.610;2023-01-13T09:30:03;16.40;;;2.40;;
30096;SDS011;16915;51.466;3.610;2023-01-13T09:32:29;31.35;;;3.45;;
30096;SDS011;16915;51.466;3.610;2023-01-13T09:34:55;14.98;;;2.70;;
30096;SDS011;16915;51.466;3.610;2023-01-13T09:37:28;20.88;;;3.08;;
30096;SDS011;16915;51.466;3.610;2023-01-13T09:39:55;24.42;;;3.05;;
30096;SDS011;16915;51.466;3.610;2023-01-13T09:42:30;19.30;;;2.88;;
30096;SDS011;16915;51.466;3.610;2023-01-13T09:45:24;18.30;;;3.58;;
30096;SDS011;16915;51.466;3.610;2023-01-13T09:48:12;18.90;;;2.88;;
30096;SDS011;16915;51.466;3.610;2023-01-13T09:53:39;21.40;;;2.75;;
30096;SDS011;16915;51.466;3.610;2023-01-13T09:56:11;19.42;;;3.00;;
30096;SDS011;16915;51.466;3.610;2023-01-13T09:58:37;24.40;;;2.80;;
30096;SDS011;16915;51.466;3.610;2023-01-13T10:04:11;19.50;;;2.75;;
30096;SDS011;16915;51.466;3.610;2023-01-13T10:06:39;24.52;;;3.25;;
30096;SDS011;16915;51.466;3.610;2023-01-13T10:09:21;12.88;;;2.47;;
30096;SDS011;16915;51.466;3.610;2023-01-13T10:11:52;14.73;;;2.92;;
30096;SDS011;16915;51.466;3.610;2023-01-13T10:28:16;14.70;;;2.75;;
30096;SDS011;16915;51.466;3.610;2023-01-13T10:30:47;15.82;;;2.53;;
30096;SDS011;16915;51.466;3.610;2023-01-13T10:33:17;22.65;;;3.08;;
30096;SDS011;16915;51.466;3.610;2023-01-13T10:38:20;19.05;;;3.25;;
30096;SDS011;16915;51.466;3.610;2023-01-13T10:43:37;18.20;;;3.42;;
30096;SDS011;16915;51.466;3.610;2023-01-13T10:46:10;16.33;;;2.90;;
30096;SDS011;16915;51.466;3.610;2023-01-13T10:48:56;21.48;;;3.08;;
30096;SDS011;16915;51.466;3.610;2023-01-13T10:51:25;18.13;;;2.53;;
30096;SDS011;16915;51.466;3.610;2023-01-13T10:56:38;18.25;;;2.72;;
30096;SDS011;16915;51.466;3.610;2023-01-13T10:59:10;23.05;;;3.28;;
30096;SDS011;16915;51.466;3.610;2023-01-13T11:01:37;21.77;;;2.55;;
30096;SDS011;16915;51.466;3.610;2023-01-13T11:04:14;20.15;;;2.78;;
30096;SDS011;16915;51.466;3.610;2023-01-13T11:06:57;15.85;;;2.22;;
30096;SDS011;16915;51.466;3.610;2023-01-13T11:09:24;24.10;;;3.20;;
30096;SDS011;16915;51.466;3.610;2023-01-13T11:11:51;19.60;;;2.28;;
30096;SDS011;16915;51.466;3.610;2023-01-13T11:14:21;15.13;;;2.67;;
30096;SDS011;16915;51.466;3.610;2023-01-13T11:17:50;21.52;;;2.75;;
30096;SDS011;16915;51.466;3.610;2023-01-13T11:23:12;26.52;;;2.78;;
30096;SDS011;16915;51.466;3.610;2023-01-13T11:25:43;13.80;;;2.28;;
30096;SDS011;16915;51.466;3.610;2023-01-13T11:34:28;20.25;;;3.03;;
30096;SDS011;16915;51.466;3.610;2023-01-13T11:36:38;15.95;;;1.90;;
30096;SDS011;16915;51.466;3.610;2023-01-13T11:39:13;18.13;;;2.50;;
30096;SDS011;16915;51.466;3.610;2023-01-13T11:41:56;14.57;;;2.85;;
30096;SDS011;16915;51.466;3.610;2023-01-13T11:44:53;16.67;;;2.10;;
30096;SDS011;16915;51.466;3.610;2023-01-13T11:47:35;13.93;;;2.50;;
30096;SDS011;16915;51.466;3.610;2023-01-13T11:50:02;18.38;;;2.40;;
30096;SDS011;16915;51.466;3.610;2023-01-13T11:58:08;23.38;;;2.65;;
30096;SDS011;16915;51.466;3.610;2023-01-13T12:06:27;18.63;;;2.20;;
30096;SDS011;16915;51.466;3.610;2023-01-13T12:23:42;15.35;;;2.97;;
30096;SDS011;16915;51.466;3.610;2023-01-13T12:26:19;19.20;;;2.55;;
30096;SDS011;16915;51.466;3.610;2023-01-13T12:31:26;18.65;;;2.55;;
30096;SDS011;16915;51.466;3.610;2023-01-13T12:34:29;20.85;;;2.90;;
30096;SDS011;16915;51.466;3.610;2023-01-13T12:42:09;25.52;;;2.85;;
30096;SDS011;16915;51.466;3.610;2023-01-13T12:47:36;15.18;;;1.85;;
30096;SDS011;16915;51.466;3.610;2023-01-13T12:55:20;21.48;;;2.85;;
30096;SDS011;16915;51.466;3.610;2023-01-13T13:05:45;20.92;;;2.67;;
30096;SDS011;16915;51.466;3.610;2023-01-13T13:08:29;20.00;;;2.28;;
30096;SDS011;16915;51.466;3.610;2023-01-13T13:14:03;21.20;;;2.45;;
30096;SDS011;16915;51.466;3.610;2023-01-13T13:16:35;18.35;;;2.88;;
30096;SDS011;16915;51.466;3.610;2023-01-13T13:27:33;16.85;;;3.08;;
30096;SDS011;16915;51.466;3.610;2023-01-13T13:30:24;22.77;;;2.63;;
30096;SDS011;16915;51.466;3.610;2023-01-13T13:41:33;22.73;;;3.20;;
30096;SDS011;16915;51.466;3.610;2023-01-13T13:44:20;22.42;;;2.65;;
30096;SDS011;16915;51.466;3.610;2023-01-13T13:47:09;16.80;;;2.35;;
30096;SDS011;16915;51.466;3.610;2023-01-13T13:49:41;10.80;;;2.03;;
30096;SDS011;16915;51.466;3.610;2023-01-13T13:52:17;18.08;;;2.60;;
30096;SDS011;16915;51.466;3.610;2023-01-13T13:54:46;13.60;;;2.50;;
30096;SDS011;16915;51.466;3.610;2023-01-13T13:57:29;16.80;;;3.17;;
30096;SDS011;16915;51.466;3.610;2023-01-13T14:00:06;17.65;;;3.13;;
30096;SDS011;16915;51.466;3.610;2023-01-13T14:02:47;15.57;;;2.20;;
30096;SDS011;16915;51.466;3.610;2023-01-13T14:07:47;18.95;;;2.60;;
30096;SDS011;16915;51.466;3.610;2023-01-13T14:10:17;18.33;;;2.80;;
30096;SDS011;16915;51.466;3.610;2023-01-13T14:12:49;18.77;;;2.60;;
30096;SDS011;16915;51.466;3.610;2023-01-13T14:15:27;16.38;;;2.08;;
30096;SDS011;16915;51.466;3.610;2023-01-13T14:17:55;25.55;;;2.88;;
30096;SDS011;16915;51.466;3.610;2023-01-13T14:20:22;13.18;;;2.30;;
30096;SDS011;16915;51.466;3.610;2023-01-13T14:22:48;10.02;;;2.20;;
30096;SDS011;16915;51.466;3.610;2023-01-13T14:25:35;27.92;;;2.72;;
30096;SDS011;16915;51.466;3.610;2023-01-13T14:30:37;22.98;;;2.60;;
30096;SDS011;16915;51.466;3.610;2023-01-13T14:33:03;15.50;;;2.63;;
30096;SDS011;16915;51.466;3.610;2023-01-13T14:35:30;18.45;;;2.13;;
30096;SDS011;16915;51.466;3.610;2023-01-13T14:38:02;11.70;;;2.20;;
30096;SDS011;16915;51.466;3.610;2023-01-13T14:43:00;17.45;;;2.97;;
30096;SDS011;16915;51.466;3.610;2023-01-13T14:45:27;20.13;;;2.30;;
30096;SDS011;16915;51.466;3.610;2023-01-13T14:47:54;13.95;;;2.38;;
30096;SDS011;16915;51.466;3.610;2023-01-13T14:50:23;25.73;;;2.53;;
30096;SDS011;16915;51.466;3.610;2023-01-13T14:52:55;14.57;;;2.38;;
30096;SDS011;16915;51.466;3.610;2023-01-13T14:55:34;24.73;;;2.28;;
30096;SDS011;16915;51.466;3.610;2023-01-13T15:00:48;20.15;;;2.33;;
30096;SDS011;16915;51.466;3.610;2023-01-13T15:03:16;24.10;;;3.70;;
30096;SDS011;16915;51.466;3.610;2023-01-13T15:05:48;20.50;;;3.60;;
30096;SDS011;16915;51.466;3.610;2023-01-13T15:08:26;19.63;;;2.95;;
30096;SDS011;16915;51.466;3.610;2023-01-13T15:11:00;26.38;;;3.55;;
30096;SDS011;16915;51.466;3.610;2023-01-13T15:16:02;18.08;;;3.60;;
30096;SDS011;16915;51.466;3.610;2023-01-13T15:18:29;27.20;;;2.83;;
30096;SDS011;16915;51.466;3.610;2023-01-13T15:20:56;14.70;;;2.45;;
30096;SDS011;16915;51.466;3.610;2023-01-13T15:23:21;25.65;;;3.28;;
30096;SDS011;16915;51.466;3.610;2023-01-13T15:25:47;22.45;;;2.78;;
30096;SDS011;16915;51.466;3.610;2023-01-13T15:28:15;29.65;;;2.70;;
30096;SDS011;16915;51.466;3.610;2023-01-13T15:30:43;28.65;;;3.15;;
30096;SDS011;16915;51.466;3.610;2023-01-13T15:33:09;20.92;;;3.13;;
30096;SDS011;16915;51.466;3.610;2023-01-13T15:35:36;19.17;;;2.42;;
30096;SDS011;16915;51.466;3.610;2023-01-13T15:38:09;19.95;;;2.67;;
30096;SDS011;16915;51.466;3.610;2023-01-13T15:40:36;23.80;;;3.95;;
30096;SDS011;16915;51.466;3.610;2023-01-13T15:43:02;21.00;;;3.00;;
30096;SDS011;16915;51.466;3.610;2023-01-13T15:45:47;15.77;;;3.10;;
30096;SDS011;16915;51.466;3.610;2023-01-13T15:48:32;18.45;;;2.28;;
30096;SDS011;16915;51.466;3.610;2023-01-13T15:50:58;22.95;;;4.68;;
30096;SDS011;16915;51.466;3.610;2023-01-13T15:53:24;17.48;;;2.58;;
30096;SDS011;16915;51.466;3.610;2023-01-13T15:55:52;17.80;;;3.10;;
30096;SDS011;16915;51.466;3.610;2023-01-13T15:58:21;19.92;;;2.78;;
30096;SDS011;16915;51.466;3.610;2023-01-13T16:00:49;15.50;;;2.78;;
30096;SDS011;16915;51.466;3.610;2023-01-13T16:03:15;22.15;;;3.45;;
30096;SDS011;16915;51.466;3.610;2023-01-13T16:05:41;17.75;;;3.05;;
30096;SDS011;16915;51.466;3.610;2023-01-13T16:08:14;22.10;;;3.20;;
30096;SDS011;16915;51.466;3.610;2023-01-13T16:10:44;14.25;;;2.05;;
30096;SDS011;16915;51.466;3.610;2023-01-13T16:13:11;21.10;;;3.00;;
30096;SDS011;16915;51.466;3.610;2023-01-13T16:15:38;20.48;;;2.25;;
30096;SDS011;16915;51.466;3.610;2023-01-13T16:18:18;27.27;;;3.72;;
30096;SDS011;16915;51.466;3.610;2023-01-13T16:20:48;20.65;;;3.15;;
30096;SDS011;16915;51.466;3.610;2023-01-13T16:23:16;17.13;;;2.45;;
30096;SDS011;16915;51.466;3.610;2023-01-13T16:25:43;15.77;;;2.20;;
30096;SDS011;16915;51.466;3.610;2023-01-13T16:28:18;22.20;;;2.95;;
30096;SDS011;16915;51.466;3.610;2023-01-13T16:30:46;22.10;;;3.67;;
30096;SDS011;16915;51.466;3.610;2023-01-13T16:33:12;19.30;;;3.13;;
30096;SDS011;16915;51.466;3.610;2023-01-13T16:35:37;22.48;;;2.80;;
30096;SDS011;16915;51.466;3.610;2023-01-13T16:38:03;27.10;;;3.47;;
30096;SDS011;16915;51.466;3.610;2023-01-13T16:40:30;20.08;;;2.80;;
30096;SDS011;16915;51.466;3.610;2023-01-13T16:43:00;28.65;;;3.15;;
30096;SDS011;16915;51.466;3.610;2023-01-13T16:45:27;16.05;;;3.05;;
30096;SDS011;16915;51.466;3.610;2023-01-13T16:47:54;22.20;;;2.78;;
30096;SDS011;16915;51.466;3.610;2023-01-13T16:52:56;24.83;;;3.22;;
30096;SDS011;16915;51.466;3.610;2023-01-13T16:55:21;20.70;;;2.60;;
30096;SDS011;16915;51.466;3.610;2023-01-13T16:57:47;16.80;;;2.80;;
30096;SDS011;16915;51.466;3.610;2023-01-13T17:00:13;18.80;;;4.10;;
30096;SDS011;16915;51.466;3.610;2023-01-13T17:02:39;16.88;;;3.15;;
30096;SDS011;16915;51.466;3.610;2023-01-13T17:05:05;18.55;;;2.58;;
30096;SDS011;16915;51.466;3.610;2023-01-13T17:07:31;28.65;;;4.22;;
30096;SDS011;16915;51.466;3.610;2023-01-13T17:09:57;31.80;;;3.45;;
30096;SDS011;16915;51.466;3.610;2023-01-13T17:12:22;28.55;;;3.13;;
30096;SDS011;16915;51.466;3.610;2023-01-13T17:14:48;26.15;;;3.63;;
30096;SDS011;16915;51.466;3.610;2023-01-13T17:17:19;29.70;;;3.70;;
30096;SDS011;16915;51.466;3.610;2023-01-13T17:19:49;30.60;;;4.28;;
30096;SDS011;16915;51.466;3.610;2023-01-13T17:22:15;30.40;;;3.85;;
30096;SDS011;16915;51.466;3.610;2023-01-13T17:24:41;22.83;;;2.70;;
30096;SDS011;16915;51.466;3.610;2023-01-13T17:27:07;24.38;;;3.28;;
30096;SDS011;16915;51.466;3.610;2023-01-13T17:29:33;16.98;;;3.03;;